WetterOnline ( https://www.wetteronline.de )

Wetter aktuell Spremberg

Aktuelles Wetter: Hoyerswerda (116m)

6-stündlich | Neueste Meldungen
Ortszeit Temperatur Wetter
Sa, 24.02. 7:00 0.9° C bedeckt
Sa, 24.02. 1:00 3.1° C bewölkt
Fr, 23.02. 19:00 6.7° C bedeckt
Fr, 23.02. 13:00 9.6° C bewölkt
Fr, 23.02. 7:00 8.9° C wolkig
Fr, 23.02. 1:00 10.6° C wolkig
Do, 22.02. 19:00 10.9° C bedeckt
Do, 22.02. 13:00 10.8° C bedeckt
Ortszeit Temperatur Wetter
Sa, 24.02. 7:30 1.0° C bedeckt
Sa, 24.02. 7:20 1.0° C bedeckt
Sa, 24.02. 7:10 0.7° C bedeckt
Sa, 24.02. 7:00 0.9° C bedeckt
Sa, 24.02. 6:50 0.9° C bedeckt
Sa, 24.02. 6:40 1.5° C bedeckt
Sa, 24.02. 6:30 2.5° C bewölkt
Sa, 24.02. 6:00 1.3° C leicht bewölkt
Sa, 24.02. 5:30 1.7° C bedeckt
Sa, 24.02. 5:00 2.0° C wolkig
Sa, 24.02. 4:30 2.8° C bedeckt
Ortszeit Relative Feuchte Sichtweite
Sa, 24.02. 7:00 93% 40 km
Sa, 24.02. 1:00 93% 40 km
Fr, 23.02. 19:00 69% 45 km
Fr, 23.02. 13:00 57% 55 km
Fr, 23.02. 7:00 59% >70 km
Fr, 23.02. 1:00 81% >70 km
Do, 22.02. 19:00 80% >70 km
Do, 22.02. 13:00 81% 55 km
Ortszeit Relative Feuchte Sichtweite
Sa, 24.02. 7:30 95% 40 km
Sa, 24.02. 7:20 95% -
Sa, 24.02. 7:10 94% -
Sa, 24.02. 7:00 93% 40 km
Sa, 24.02. 6:50 93% -
Sa, 24.02. 6:40 93% -
Sa, 24.02. 6:30 90% 55 km
Sa, 24.02. 6:00 97% 35 km
Sa, 24.02. 5:30 97% 30 km
Sa, 24.02. 5:00 95% 35 km
Sa, 24.02. 4:30 92% 45 km
Ortszeit Niederschlagsmenge Niederschlagsart
Sa, 24.02. 7:00 0.0 l/m2 in 12 Std. -
Sa, 24.02. 1:00 0.0 l/m2 in 6 Std. -
Fr, 23.02. 19:00 0.0 l/m2 in 12 Std. -
Fr, 23.02. 13:00 0.0 l/m2 in 6 Std. -
Fr, 23.02. 7:00 1 l/m2 in 12 Std. -
Fr, 23.02. 1:00 1 l/m2 in 6 Std. Regen
Do, 22.02. 19:00 1 l/m2 in 12 Std. Regen
Do, 22.02. 13:00 1 l/m2 in 6 Std. Regen
Ortszeit Niederschlagsmenge Niederschlagsart
Sa, 24.02. 7:30 0.0 l/m2 in 30 Min -
Sa, 24.02. 7:20 keine Meldung -
Sa, 24.02. 7:10 keine Meldung -
Sa, 24.02. 7:00 0.0 l/m2 in 1 Std. -
Sa, 24.02. 6:50 keine Meldung -
Sa, 24.02. 6:40 keine Meldung -
Sa, 24.02. 6:30 0.0 l/m2 in 30 Min -
Sa, 24.02. 6:00 0.0 l/m2 in 1 Std. -
Sa, 24.02. 5:30 0.0 l/m2 in 30 Min -
Sa, 24.02. 5:00 0.0 l/m2 in 1 Std. -
Sa, 24.02. 4:30 0.0 l/m2 in 30 Min -
Ortszeit Stärke Spitze Richtung
km/h Bft. km/h Grad Sektor
Sa, 24.02. 7:00 4 1 11 150° SO
Sa, 24.02. 1:00 0 0 7 - -
Fr, 23.02. 19:00 4 1 29 170° S
Fr, 23.02. 13:00 18 3 43 270° W
Fr, 23.02. 7:00 18 3 58 240° SW
Fr, 23.02. 1:00 14 3 36 180° S
Do, 22.02. 19:00 11 2 29 170° S
Do, 22.02. 13:00 14 3 32 190° S
Ortszeit Stärke Spitze Richtung
km/h Bft. km/h Grad Sektor
Sa, 24.02. 7:30 4 1 7 170° S
Sa, 24.02. 7:20 4 1 - 170° S
Sa, 24.02. 7:10 2 1 - 140° SO
Sa, 24.02. 7:00 4 1 11 150° SO
Sa, 24.02. 6:50 4 1 - 150° SO
Sa, 24.02. 6:40 4 1 - 170° S
Sa, 24.02. 6:30 7 2 11 180° S
Sa, 24.02. 6:00 6 1 9 180° S
Sa, 24.02. 5:30 4 1 4 150° SO
Sa, 24.02. 5:00 4 1 4 180° S
Sa, 24.02. 4:30 4 1 4 170° S
Ortszeit Untergrenze Bedeckung Gattung
total tief tief mittel hoch
Sa, 24.02. 7:00 5700 m 8/8 8/8 - - -
Sa, 24.02. 1:00 1800 m 7/8 7/8 - - -
Fr, 23.02. 19:00 3000 m 8/8 8/8 - - -
Fr, 23.02. 13:00 1260 m 8/8 6/8 - - -
Fr, 23.02. 7:00 1500 m 8/8 1/8 - - -
Fr, 23.02. 1:00 1410 m 8/8 3/8 - - -
Do, 22.02. 19:00 1320 m 8/8 8/8 - - -
Do, 22.02. 13:00 960 m 8/8 8/8 - - -
Ortszeit Bedeckungsgrad in Achtel und Wolkenuntergrenze
Sa, 24.02. 7:30 8(6000m)
Sa, 24.02. 7:20 8(6000m)
Sa, 24.02. 7:10 8
Sa, 24.02. 7:00 8(5700m)
Sa, 24.02. 6:50 8(5700m)
Sa, 24.02. 6:40 8
Sa, 24.02. 6:30 7(4800m) 7(6000m)
Sa, 24.02. 6:00 3(6600m)
Sa, 24.02. 5:30 6(4800m) 8(6300m)
Sa, 24.02. 5:00 1(1440m) 8(5700m)
Sa, 24.02. 4:30 3(3600m) 8(5700m)
Ortszeit Luftdruck NN (hPa) Tendenz (hPa in 3 Std.)
Sa, 24.02. 7:00 1002 + 1,2
Sa, 24.02. 1:00 1000 + 0,1
Fr, 23.02. 19:00 1000 + 0,6
Fr, 23.02. 13:00 999 + 1,2
Fr, 23.02. 7:00 995 + 4,2
Fr, 23.02. 1:00 989 - 1,0
Do, 22.02. 19:00 991 - 2,1
Do, 22.02. 13:00 996 - 2,5
Ortszeit Luftdruck NN (hPa) Tendenz (hPa in 3 Std.)
Sa, 24.02. 7:30 1002 + 1,4
Sa, 24.02. 7:20 1002 keine Meldung
Sa, 24.02. 7:10 1002 keine Meldung
Sa, 24.02. 7:00 1002 + 1,2
Sa, 24.02. 6:50 1002 keine Meldung
Sa, 24.02. 6:40 1002 keine Meldung
Sa, 24.02. 6:30 1001 + 1,1
Sa, 24.02. 6:00 1001 + 0,7
Sa, 24.02. 5:30 1001 + 0,6
Sa, 24.02. 5:00 1001 + 0,3
Sa, 24.02. 4:30 1001 + 0,2
Ortszeit Schneehöhe (cm)
Sa, 24.02. 7:00 0
Sa, 24.02. 1:00 0
Fr, 23.02. 19:00 0
Fr, 23.02. 13:00 0
Fr, 23.02. 7:00 0
Fr, 23.02. 1:00 0
Do, 22.02. 19:00 0
Do, 22.02. 13:00 0
Ortszeit Schneehöhe (cm)
Sa, 24.02. 7:30 0
Sa, 24.02. 7:20 0
Sa, 24.02. 7:10 -
Sa, 24.02. 7:00 0
Sa, 24.02. 6:50 0
Sa, 24.02. 6:40 -
Sa, 24.02. 6:30 0
Sa, 24.02. 6:00 0
Sa, 24.02. 5:30 0
Sa, 24.02. 5:00 0
Sa, 24.02. 4:30 0
Link zu dieser Seite / Seite empfehlen

Das Wetter in ...